createdAt,value
2017-03-29T00:03:19.167Z,49.26
2017-03-29T00:07:19.044Z,49.45
2017-03-29T00:11:18.364Z,49.84
2017-03-29T00:15:18.198Z,50.67
2017-03-29T00:19:18.809Z,51.34
2017-03-29T00:23:28.580Z,51.06
2017-03-29T00:25:45.872Z,51.73
2017-03-29T00:29:45.646Z,50.87
2017-03-29T00:33:45.432Z,52.01
2017-03-29T00:37:45.246Z,52.3
2017-03-29T00:40:16.594Z,52.4
2017-03-29T00:44:07.937Z,52.69
2017-03-29T00:46:47.381Z,53.26
2017-03-29T00:50:46.807Z,52.69
2017-03-29T00:54:46.503Z,54.1
2017-03-29T00:57:16.933Z,53.33
2017-03-29T01:01:21.210Z,53.45
2017-03-29T01:05:29.963Z,52.4
2017-03-29T01:09:29.328Z,52.69
2017-03-29T01:13:29.124Z,53.52
2017-03-29T01:15:30.371Z,53.52
2017-03-29T01:17:48.978Z,53.91
2017-03-29T01:20:21.454Z,53.81
2017-03-29T01:22:51.881Z,53.81
2017-03-29T01:25:15.545Z,53.52
2017-03-29T01:27:40.124Z,53.62
2017-03-29T01:30:05.741Z,53.71
2017-03-29T01:34:05.516Z,54.64
2017-03-29T01:38:05.264Z,54.93
2017-03-29T01:42:05.053Z,54.64
2017-03-29T01:46:04.725Z,55.12
2017-03-29T01:50:04.507Z,55.51
2017-03-29T01:52:34.939Z,55.69
2017-03-29T01:55:00.531Z,55.51
2017-03-29T02:00:36.328Z,56.15
2017-03-29T02:04:36.094Z,55.76
2017-03-29T02:08:35.758Z,56.05
2017-03-29T02:12:35.530Z,56.15
2017-03-29T02:14:28.804Z,55.96
2017-03-29T02:19:56.254Z,55.96
2017-03-29T02:23:55.971Z,55.96
2017-03-29T02:27:47.252Z,56.62
2017-03-29T02:30:10.881Z,56.82
2017-03-29T02:34:10.583Z,56.82
2017-03-29T02:36:50.969Z,56.82
2017-03-29T02:39:14.535Z,57.01
2017-03-29T02:43:14.257Z,56.91
2017-03-29T02:47:15.100Z,57.1
2017-03-29T02:49:39.715Z,57.84
2017-03-29T02:53:43.826Z,56.82
2017-03-29T02:56:07.411Z,56.62
2017-03-29T02:58:39.793Z,57.84
2017-03-29T03:01:04.366Z,57.75
2017-03-29T03:03:06.066Z,58.03
2017-03-29T03:07:05.732Z,58.32
2017-03-29T03:11:05.431Z,58.41
2017-03-29T03:13:36.841Z,59.37
2017-03-29T03:16:02.363Z,59.47
2017-03-29T03:18:25.913Z,59.56
2017-03-29T03:20:58.010Z,59.66
2017-03-29T03:23:23.545Z,60.23
2017-03-29T03:25:49.035Z,60.04
2017-03-29T03:28:14.542Z,59.56
2017-03-29T03:30:38.127Z,60.33
2017-03-29T03:33:16.322Z,59.56
2017-03-29T03:35:56.124Z,59.94
2017-03-29T03:38:19.447Z,60.13
2017-03-29T03:40:43.937Z,59.66
2017-03-29T03:43:09.700Z,58.98
2017-03-29T03:45:10.740Z,59.27
2017-03-29T03:47:50.055Z,59.08
2017-03-29T03:51:51.739Z,58.8
2017-03-29T03:54:15.278Z,58.7
2017-03-29T03:56:53.612Z,58.7
2017-03-29T03:59:33.131Z,58.61
2017-03-29T04:01:57.734Z,59.08
2017-03-29T04:04:21.357Z,59.47
2017-03-29T04:06:45.796Z,59.94
2017-03-29T04:09:24.114Z,59.37
2017-03-29T04:12:04.614Z,59.27
2017-03-29T04:14:37.052Z,59.08
2017-03-29T04:17:01.573Z,59.27
2017-03-29T04:19:25.025Z,59.84
2017-03-29T04:21:48.583Z,59.94
2017-03-29T04:25:48.160Z,59.47
2017-03-29T04:29:47.750Z,59.27
2017-03-29T04:32:19.194Z,59.84
2017-03-29T04:34:20.880Z,59.94
2017-03-29T04:36:45.437Z,60.04
2017-03-29T04:39:15.781Z,59.94
2017-03-29T04:41:45.780Z,60.23
2017-03-29T04:46:39.733Z,61.44
2017-03-29T04:49:17.861Z,61.35
2017-03-29T04:51:43.312Z,61.25
2017-03-29T04:55:42.948Z,61.54
2017-03-29T04:59:42.578Z,60.13
2017-03-29T05:02:06.982Z,61.35
2017-03-29T05:04:44.940Z,60.9
2017-03-29T05:07:10.390Z,61.19
2017-03-29T05:11:10.009Z,59.94
2017-03-29T05:13:31.972Z,59.94
2017-03-29T05:15:55.451Z,60.33
2017-03-29T05:18:05.250Z,59.3
2017-03-29T05:20:29.738Z,58.63
2017-03-29T05:22:53.197Z,58.73
2017-03-29T05:25:25.016Z,58.73
2017-03-29T05:29:16.297Z,58.54
2017-03-29T05:33:15.905Z,57.77
2017-03-29T05:37:16.013Z,57.04
2017-03-29T05:42:43.454Z,53.36
2017-03-29T05:45:09.102Z,49.6
2017-03-29T05:47:47.332Z,46.28
2017-03-29T05:50:17.813Z,41.93
2017-03-29T05:54:17.753Z,34.84
2017-03-29T05:56:41.798Z,31.81
2017-03-29T05:59:05.709Z,29.23
2017-03-29T06:01:30.923Z,26.57
2017-03-29T06:05:31.324Z,24.66
2017-03-29T06:08:11.643Z,22.16
2017-03-29T06:10:50.626Z,19.96
2017-03-29T06:13:13.631Z,17.09
2017-03-29T06:17:05.965Z,15.74
2017-03-29T06:21:06.875Z,16.69
2017-03-29T06:25:07.290Z,18.33
2017-03-29T06:32:20.817Z,23.48
2017-03-29T06:36:21.535Z,28.04
2017-03-29T06:38:52.331Z,30.43
2017-03-29T06:42:52.548Z,32.24
2017-03-29T06:45:25.737Z,32.81
2017-03-29T06:49:25.781Z,30.15
2017-03-29T06:51:43.666Z,29.59
2017-03-29T06:55:44.228Z,29.2
2017-03-29T06:59:45.533Z,19.88
2017-03-29T07:01:56.307Z,16.34
2017-03-29T07:05:57.304Z,13.06
2017-03-29T07:09:58.561Z,9.28
2017-03-29T07:12:39.323Z,8.69
2017-03-29T07:15:06.020Z,7.62
2017-03-29T07:19:23.459Z,5.66
2017-03-29T07:21:49.389Z,5.95
2017-03-29T07:24:17.152Z,4.47
2017-03-29T07:26:45.086Z,4.77
2017-03-29T07:28:47.419Z,3.59
2017-03-29T07:30:49.795Z,3.19
2017-03-29T07:33:22.488Z,2.5
2017-03-29T07:35:57.485Z,2.59
2017-03-29T07:38:31.551Z,2.7
2017-03-29T07:41:13.540Z,2.3
2017-03-29T07:43:46.563Z,1.5
2017-03-29T07:46:13.009Z,1.9
2017-03-29T07:48:41.734Z,2.4
2017-03-29T07:52:47.466Z,1.4
2017-03-29T07:55:19.275Z,4.08
2017-03-29T07:57:52.696Z,5.25
2017-03-29T08:00:19.301Z,7.6
2017-03-29T08:02:53.663Z,11.19
2017-03-29T08:05:28.182Z,11.77
2017-03-29T08:07:55.699Z,15.63
2017-03-29T08:12:05.135Z,16.11
2017-03-29T08:14:31.287Z,14.48
2017-03-29T08:16:57.203Z,14.19
2017-03-29T08:19:22.915Z,14.86
2017-03-29T08:21:50.497Z,15.82
2017-03-29T08:24:16.956Z,17.07
2017-03-29T08:26:42.185Z,19.55
2017-03-29T08:29:07.343Z,17.94
2017-03-29T08:31:32.486Z,18.99
2017-03-29T08:33:59.502Z,19.09
2017-03-29T08:36:24.504Z,19.27
2017-03-29T08:38:50.490Z,20.04
2017-03-29T08:41:15.386Z,22.52
2017-03-29T08:43:41.206Z,23.28
2017-03-29T08:46:06.015Z,23.28
2017-03-29T08:48:31.903Z,24.06
2017-03-29T08:52:33.896Z,21.78
2017-03-29T08:54:59.638Z,20.62
2017-03-29T08:57:24.352Z,21.86
2017-03-29T08:59:49.066Z,21.57
2017-03-29T09:02:13.825Z,21.77
2017-03-29T09:04:38.650Z,21.86
2017-03-29T09:07:03.691Z,22.72
2017-03-29T09:09:29.451Z,24.15
2017-03-29T09:13:22.480Z,24.63
2017-03-29T09:15:24.439Z,22.72
2017-03-29T09:17:34.994Z,24.34
2017-03-29T09:19:37.064Z,22.81
2017-03-29T09:22:10.355Z,25.29
2017-03-29T09:27:40.907Z,25.76
2017-03-29T09:29:42.914Z,25.66
2017-03-29T09:36:56.158Z,24.99
2017-03-29T09:39:22.749Z,24.9
2017-03-29T09:41:48.292Z,24.04
2017-03-29T09:45:49.029Z,25.09
2017-03-29T09:48:20.355Z,25.96
2017-03-29T09:52:21.085Z,24.54
2017-03-29T09:54:53.339Z,25.09
2017-03-29T09:57:32.325Z,26.52
2017-03-29T10:01:35.156Z,25.96
2017-03-29T10:04:00.663Z,25.77
2017-03-29T10:06:27.132Z,25.1
2017-03-29T10:08:51.633Z,24.24
2017-03-29T10:11:16.088Z,24.92
2017-03-29T10:13:57.435Z,25.02
2017-03-29T10:16:37.917Z,25.96
2017-03-29T10:19:04.470Z,26.73
2017-03-29T10:21:37.917Z,26.06
2017-03-29T10:24:03.456Z,25.67
2017-03-29T10:26:29.052Z,24.73
2017-03-29T10:30:29.739Z,25.19
2017-03-29T10:33:09.001Z,26.62
2017-03-29T10:37:11.717Z,24.98
2017-03-29T10:41:12.407Z,24.12
2017-03-29T10:45:04.691Z,24.03
2017-03-29T10:47:22.714Z,27.08
2017-03-29T10:49:53.921Z,25.63
2017-03-29T10:53:54.057Z,25.34
2017-03-29T10:56:19.464Z,26.77
2017-03-29T10:58:50.349Z,26.57
2017-03-29T11:02:50.986Z,24.77
2017-03-29T11:06:52.691Z,26.19
2017-03-29T11:08:54.515Z,25.63
2017-03-29T11:11:19.903Z,25.46
2017-03-29T11:15:20.539Z,25.72
2017-03-29T11:19:21.171Z,26.29
2017-03-29T11:23:21.809Z,26.68
2017-03-29T11:25:53.111Z,26.12
2017-03-29T11:29:53.686Z,26.18
2017-03-29T11:32:04.200Z,26.66
2017-03-29T11:34:45.527Z,26.46
2017-03-29T11:38:37.618Z,27.03
2017-03-29T11:42:38.116Z,27.51
2017-03-29T11:46:38.650Z,27.51
2017-03-29T11:50:39.133Z,26.09
2017-03-29T11:53:17.974Z,26.55
2017-03-29T11:55:42.250Z,26.46
2017-03-29T11:57:53.423Z,26.26
2017-03-29T12:01:45.371Z,27.91
2017-03-29T12:05:45.831Z,27.61
2017-03-29T12:09:46.271Z,27.51
2017-03-29T12:12:11.603Z,26.95
2017-03-29T12:14:51.618Z,27.51
2017-03-29T12:17:24.587Z,27.12
2017-03-29T12:23:01.200Z,26.37
2017-03-29T12:25:32.050Z,25.68
2017-03-29T12:29:24.050Z,25.5
2017-03-29T12:33:24.518Z,26.65
2017-03-29T12:35:48.765Z,26.76
2017-03-29T12:39:49.177Z,26.86
2017-03-29T12:42:30.004Z,26.28
2017-03-29T12:45:00.989Z,26.08
2017-03-29T12:47:31.993Z,26.26
2017-03-29T12:51:32.459Z,26.65
2017-03-29T12:54:04.223Z,25.12
2017-03-29T12:56:28.508Z,25.4
2017-03-29T12:59:01.240Z,24.63
2017-03-29T13:03:12.493Z,22.88
2017-03-29T13:07:13.195Z,22.5
2017-03-29T13:11:13.405Z,22.13
2017-03-29T13:13:29.226Z,23.1
2017-03-29T13:16:09.263Z,24.05
2017-03-29T13:20:01.260Z,24.82
2017-03-29T13:24:02.025Z,24.52
2017-03-29T13:26:26.522Z,23.66
2017-03-29T13:30:32.266Z,24.24
2017-03-29T13:32:34.110Z,24.07
2017-03-29T13:34:58.360Z,22.91
2017-03-29T13:37:15.221Z,23.11
2017-03-29T13:41:15.563Z,23.49
2017-03-29T13:43:39.829Z,24.54
2017-03-29T13:45:56.611Z,24.34
2017-03-29T13:48:21.035Z,23.19
2017-03-29T13:50:47.218Z,23.19
2017-03-29T13:53:11.445Z,23.96
2017-03-29T13:55:42.394Z,23.47
2017-03-29T13:58:07.612Z,24.81
2017-03-29T14:00:32.891Z,23.86
2017-03-29T14:02:58.110Z,24.34
2017-03-29T14:05:23.350Z,23.97
2017-03-29T14:07:55.405Z,23.29
2017-03-29T14:10:19.573Z,23.86
2017-03-29T14:12:52.400Z,24.43
2017-03-29T14:15:18.569Z,24.62
2017-03-29T14:17:42.800Z,23.97
2017-03-29T14:20:14.965Z,23.5
2017-03-29T14:22:45.928Z,24.05
2017-03-29T14:25:12.255Z,24.81
2017-03-29T14:27:52.890Z,24.63
2017-03-29T14:31:53.215Z,23.97
2017-03-29T14:34:33.055Z,24.07
2017-03-29T14:36:49.818Z,25.39
2017-03-29T14:39:05.519Z,25.2
2017-03-29T14:41:38.551Z,25.02
2017-03-29T14:45:39.899Z,25.49
2017-03-29T14:48:04.151Z,25.2
2017-03-29T14:50:28.325Z,25.5
2017-03-29T14:52:53.535Z,25.39
2017-03-29T14:56:53.977Z,25.01
2017-03-29T14:59:19.224Z,25.02
2017-03-29T15:01:58.301Z,24.84
2017-03-29T15:04:30.311Z,24.84
2017-03-29T15:06:41.862Z,25.13
2017-03-29T15:09:07.010Z,25.32
2017-03-29T15:11:31.647Z,25.21
2017-03-29T15:15:31.725Z,25.68
2017-03-29T15:19:32.383Z,24.93
2017-03-29T15:21:59.257Z,25.5
2017-03-29T15:24:24.556Z,25.87
2017-03-29T15:26:50.646Z,26.08
2017-03-29T15:29:22.715Z,25.5
2017-03-29T15:31:46.877Z,26.28
2017-03-29T15:34:12.964Z,26.55
2017-03-29T15:36:37.782Z,26.26
2017-03-29T15:39:02.055Z,26.45
2017-03-29T15:41:26.129Z,27.42
2017-03-29T15:43:52.379Z,27.61
2017-03-29T15:46:25.467Z,27.33
2017-03-29T15:48:50.301Z,29.35
2017-03-29T15:51:15.440Z,27.61
2017-03-29T15:53:46.788Z,27.33
2017-03-29T15:56:12.101Z,27.23
2017-03-29T15:58:44.240Z,26.75
2017-03-29T16:01:24.200Z,27.4
2017-03-29T16:05:25.675Z,26.45
2017-03-29T16:07:49.876Z,26.28
2017-03-29T16:11:51.845Z,26.73
2017-03-29T16:14:17.208Z,26.54
2017-03-29T16:16:41.410Z,26.65
2017-03-29T16:19:12.112Z,27.22
2017-03-29T16:21:36.341Z,26.64
2017-03-29T16:24:01.478Z,27.78
2017-03-29T16:26:25.526Z,29.72
2017-03-29T16:28:50.921Z,30.3
2017-03-29T16:31:16.582Z,30.3
2017-03-29T16:35:17.928Z,27.51
2017-03-29T16:37:36.405Z,27.8
2017-03-29T16:40:03.062Z,29.24
2017-03-29T16:42:28.142Z,28.08
2017-03-29T16:44:51.641Z,27.97
2017-03-29T16:47:16.140Z,28.28
2017-03-29T16:49:40.026Z,28.26
2017-03-29T16:52:04.915Z,28.45
2017-03-29T16:54:37.569Z,27.97
2017-03-29T16:57:04.950Z,27.4
2017-03-29T16:59:35.402Z,28.44
2017-03-29T17:02:01.767Z,28.34
2017-03-29T17:06:03.823Z,28.44
2017-03-29T17:08:28.001Z,28.34
2017-03-29T17:10:53.204Z,28.15
2017-03-29T17:13:17.994Z,27.96
2017-03-29T17:15:42.362Z,28.34
2017-03-29T17:18:07.049Z,28.44
2017-03-29T17:20:38.186Z,28.63
2017-03-29T17:23:02.273Z,28.23
2017-03-29T17:25:27.574Z,28.42
2017-03-29T17:27:53.186Z,28.8
2017-03-29T17:30:17.202Z,28.99
2017-03-29T17:32:41.200Z,32.65
2017-03-29T17:34:45.475Z,34.88
2017-03-29T17:37:09.548Z,29.97
2017-03-29T17:39:35.008Z,32.86
2017-03-29T17:42:03.567Z,31.24
2017-03-29T17:44:28.054Z,29.79
2017-03-29T17:46:56.350Z,29.1
2017-03-29T17:49:21.453Z,29.89
2017-03-29T17:51:45.369Z,30.83
2017-03-29T17:54:16.838Z,28.81
2017-03-29T17:56:18.688Z,29.77
2017-03-29T17:58:43.936Z,31.12
2017-03-29T18:00:56.902Z,31.69
2017-03-29T18:03:21.573Z,29.76
2017-03-29T18:05:45.940Z,30.05
2017-03-29T18:08:10.133Z,30.05
2017-03-29T18:10:34.682Z,29.95
2017-03-29T18:13:04.116Z,31.49
2017-03-29T18:15:27.734Z,30.24
2017-03-29T18:17:52.005Z,29.94
2017-03-29T18:20:16.594Z,30.22
2017-03-29T18:22:43.874Z,30.22
2017-03-29T18:25:08.562Z,30.4
2017-03-29T18:27:39.889Z,30.79
2017-03-29T18:30:05.372Z,30.98
2017-03-29T18:32:35.451Z,31.56
2017-03-29T18:34:51.234Z,30.98
2017-03-29T18:37:15.932Z,31.56
2017-03-29T18:39:31.791Z,31.56
2017-03-29T18:41:56.801Z,31.64
2017-03-29T18:44:30.043Z,31.93
2017-03-29T18:46:54.053Z,31.93
2017-03-29T18:49:18.048Z,32.03
2017-03-29T18:51:42.770Z,32.03
2017-03-29T18:54:06.888Z,32.21
2017-03-29T18:56:31.019Z,32.41
2017-03-29T18:58:55.142Z,32.6
2017-03-29T19:01:19.234Z,33.54
2017-03-29T19:03:44.417Z,33.37
2017-03-29T19:06:09.349Z,33.47
2017-03-29T19:08:33.316Z,33.18
2017-03-29T19:10:57.389Z,33.84
2017-03-29T19:13:21.385Z,33.16
2017-03-29T19:15:45.324Z,33.47
2017-03-29T19:18:10.746Z,33.47
2017-03-29T19:20:34.174Z,33.66
2017-03-29T19:22:58.293Z,33.64
2017-03-29T19:25:22.200Z,33.54
2017-03-29T19:27:46.107Z,33.54
2017-03-29T19:30:10.486Z,34.22
2017-03-29T19:32:34.097Z,34.22
2017-03-29T19:34:57.971Z,34.31
2017-03-29T19:37:21.955Z,34.61
2017-03-29T19:39:45.952Z,34.51
2017-03-29T19:42:09.905Z,34.99
2017-03-29T19:44:33.790Z,34.99
2017-03-29T19:46:57.684Z,35.45
2017-03-29T19:49:21.588Z,35.38
2017-03-29T19:51:45.432Z,35.36
2017-03-29T19:53:47.189Z,35.45
2017-03-29T19:56:11.128Z,35.64
2017-03-29T19:58:35.141Z,35.74
2017-03-29T20:00:50.573Z,36.22
2017-03-29T20:03:14.784Z,36.13
2017-03-29T20:05:38.659Z,36.03
2017-03-29T20:08:02.881Z,36.7
2017-03-29T20:10:27.186Z,36.2
2017-03-29T20:12:52.276Z,36.41
2017-03-29T20:15:16.441Z,36.78
2017-03-29T20:17:40.274Z,36.68
2017-03-29T20:20:04.435Z,36.68
2017-03-29T20:22:28.181Z,36.49
2017-03-29T20:24:30.117Z,37.07
2017-03-29T20:26:53.960Z,37.07
2017-03-29T20:29:19.886Z,36.68
2017-03-29T20:31:43.616Z,36.49
2017-03-29T20:34:07.466Z,36.88
2017-03-29T20:36:08.774Z,36.58
2017-03-29T20:38:32.655Z,37.16
2017-03-29T20:40:48.005Z,36.78
2017-03-29T20:43:11.832Z,37.64
2017-03-29T20:45:35.725Z,36.97
2017-03-29T20:47:59.601Z,37.26
2017-03-29T20:50:24.389Z,36.97
2017-03-29T20:52:49.299Z,37.07
2017-03-29T20:55:13.059Z,37.16
2017-03-29T20:57:37.875Z,36.97
2017-03-29T21:00:01.764Z,36.97
2017-03-29T21:02:26.551Z,37.64
2017-03-29T21:04:51.436Z,38.02
2017-03-29T21:07:15.193Z,37.84
2017-03-29T21:09:39.089Z,38.01
2017-03-29T21:12:02.891Z,38.29
2017-03-29T21:14:26.639Z,38.2
2017-03-29T21:16:57.182Z,38.12
2017-03-29T21:19:22.091Z,38.29
2017-03-29T21:21:45.944Z,38.49
2017-03-29T21:24:10.740Z,38.87
2017-03-29T21:26:34.491Z,38.78
2017-03-29T21:28:58.226Z,38.68
2017-03-29T21:31:24.017Z,38.78
2017-03-29T21:33:47.790Z,38.39
2017-03-29T21:36:11.555Z,38.78
2017-03-29T21:38:35.338Z,38.7
2017-03-29T21:41:00.141Z,38.96
2017-03-29T21:43:23.890Z,38.68
2017-03-29T21:45:47.630Z,38.87
2017-03-29T21:48:12.497Z,38.99
2017-03-29T21:50:36.367Z,38.89
2017-03-29T21:53:00.260Z,38.7
2017-03-29T21:55:24.028Z,38.79
2017-03-29T21:57:48.828Z,38.7
2017-03-29T22:00:12.700Z,38.41
2017-03-29T22:02:36.575Z,38.51
2017-03-29T22:05:00.454Z,38.89
2017-03-29T22:07:25.307Z,38.79
2017-03-29T22:09:35.580Z,38.7
2017-03-29T22:11:59.531Z,38.79
2017-03-29T22:14:23.373Z,38.87
2017-03-29T22:16:40.781Z,39.06
2017-03-29T22:19:11.564Z,38.78
2017-03-29T22:21:35.448Z,38.78
2017-03-29T22:23:59.288Z,38.87
2017-03-29T22:26:23.237Z,38.68
2017-03-29T22:28:48.023Z,38.78
2017-03-29T22:31:12.771Z,38.78
2017-03-29T22:33:36.536Z,38.68
2017-03-29T22:36:01.436Z,40
2017-03-29T22:38:25.277Z,40.27
2017-03-29T22:40:50.004Z,40.84
2017-03-29T22:43:13.819Z,40.84
2017-03-29T22:45:37.539Z,41.04
2017-03-29T22:48:01.330Z,41.04
2017-03-29T22:50:16.708Z,41.42
2017-03-29T22:52:40.478Z,40.96
2017-03-29T22:55:04.257Z,41.44
2017-03-29T22:57:29.046Z,41.42
2017-03-29T22:59:44.405Z,41.71
2017-03-29T23:01:54.667Z,41.9
2017-03-29T23:04:18.457Z,41.9
2017-03-29T23:06:42.230Z,41.83
2017-03-29T23:09:07.039Z,41.83
2017-03-29T23:11:31.014Z,41.93
2017-03-29T23:13:54.822Z,42.02
2017-03-29T23:15:48.158Z,42.21
2017-03-29T23:18:11.928Z,41.93
2017-03-29T23:20:37.744Z,41.83
2017-03-29T23:23:03.567Z,41.93
2017-03-29T23:25:27.346Z,41.83
2017-03-29T23:27:51.114Z,41.93
2017-03-29T23:30:14.896Z,42.11
2017-03-29T23:32:38.660Z,42.02
2017-03-29T23:35:18.933Z,42.11
2017-03-29T23:37:42.709Z,42.21
2017-03-29T23:40:06.465Z,41.83
2017-03-29T23:42:36.906Z,42.02
2017-03-29T23:45:00.720Z,42.3
2017-03-29T23:47:10.411Z,42.21
2017-03-29T23:49:25.786Z,42.11
2017-03-29T23:51:49.583Z,42.38
2017-03-29T23:54:06.798Z,42.38
2017-03-29T23:56:22.071Z,42.77
2017-03-29T23:58:37.365Z,42.77
